createdAt,value
2024-02-16T00:00:27.819Z,15.25
2024-02-16T00:02:56.267Z,15.48
2024-02-16T00:05:24.659Z,17.00
2024-02-16T00:07:53.044Z,16.67
2024-02-16T00:10:22.938Z,15.65
2024-02-16T00:12:52.699Z,15.70
2024-02-16T00:15:21.321Z,16.45
2024-02-16T00:17:49.835Z,15.95
2024-02-16T00:20:20.213Z,16.40
2024-02-16T00:22:48.516Z,16.02
2024-02-16T00:25:17.077Z,15.10
2024-02-16T00:27:45.483Z,15.60
2024-02-16T00:30:17.005Z,15.65
2024-02-16T00:32:46.477Z,15.50
2024-02-16T00:35:14.823Z,14.75
2024-02-16T00:37:43.154Z,16.58
2024-02-16T00:40:12.679Z,15.60
2024-02-16T00:42:41.104Z,14.93
2024-02-16T00:45:10.665Z,14.40
2024-02-16T00:47:41.032Z,15.13
2024-02-16T00:50:10.642Z,14.32
2024-02-16T00:52:40.230Z,14.20
2024-02-16T00:55:09.045Z,14.90
2024-02-16T00:57:37.426Z,15.30
2024-02-16T01:00:06.778Z,13.88
2024-02-16T01:02:35.025Z,12.98
2024-02-16T01:05:05.288Z,13.30
2024-02-16T01:07:34.117Z,16.10
2024-02-16T01:10:04.477Z,15.18
2024-02-16T01:12:33.201Z,17.30
2024-02-16T01:15:02.093Z,15.82
2024-02-16T01:17:30.832Z,15.88
2024-02-16T01:19:59.512Z,17.60
2024-02-16T01:22:30.456Z,16.42
2024-02-16T01:24:58.844Z,17.70
2024-02-16T01:27:29.110Z,16.83
2024-02-16T01:29:57.866Z,20.15
2024-02-16T01:32:26.276Z,18.05
2024-02-16T01:34:54.795Z,18.23
2024-02-16T01:37:23.243Z,17.35
2024-02-16T01:39:52.928Z,18.80
2024-02-16T01:42:21.291Z,19.35
2024-02-16T01:44:49.689Z,18.85
2024-02-16T01:47:20.392Z,17.45
2024-02-16T01:49:48.843Z,17.73
2024-02-16T01:52:17.231Z,18.88
2024-02-16T01:54:45.779Z,19.13
2024-02-16T01:57:15.598Z,19.08
2024-02-16T01:59:44.057Z,19.73
2024-02-16T02:02:12.365Z,18.48
2024-02-16T02:04:40.809Z,17.60
2024-02-16T02:07:14.730Z,18.50
2024-02-16T02:09:43.267Z,17.20
2024-02-16T02:12:12.096Z,18.83
2024-02-16T02:14:43.075Z,18.30
2024-02-16T02:17:11.460Z,19.40
2024-02-16T02:19:39.873Z,18.58
2024-02-16T02:22:15.127Z,18.10
2024-02-16T02:24:43.461Z,18.27
2024-02-16T02:27:11.845Z,17.77
2024-02-16T02:29:40.252Z,19.10
2024-02-16T02:32:08.973Z,17.95
2024-02-16T02:34:37.711Z,19.67
2024-02-16T02:37:06.333Z,17.85
2024-02-16T02:39:36.679Z,19.23
2024-02-16T02:42:05.215Z,17.95
2024-02-16T02:44:33.705Z,18.50
2024-02-16T02:47:02.093Z,18.63
2024-02-16T02:49:30.643Z,18.15
2024-02-16T02:51:59.049Z,17.73
2024-02-16T02:54:27.466Z,19.27
2024-02-16T02:56:57.271Z,18.42
2024-02-16T02:59:25.631Z,18.45
2024-02-16T03:01:53.908Z,18.08
2024-02-16T03:04:22.224Z,18.58
2024-02-16T03:06:50.738Z,19.13
2024-02-16T03:09:19.107Z,18.35
2024-02-16T03:11:47.822Z,17.60
2024-02-16T03:14:18.592Z,18.17
2024-02-16T03:16:46.895Z,17.27
2024-02-16T03:19:15.732Z,17.13
2024-02-16T03:21:45.262Z,18.30
2024-02-16T03:24:13.627Z,17.33
2024-02-16T03:26:41.983Z,18.48
2024-02-16T03:29:10.268Z,18.67
2024-02-16T03:31:40.294Z,19.30
2024-02-16T03:34:08.814Z,18.98
2024-02-16T03:36:37.186Z,19.58
2024-02-16T03:39:05.703Z,17.90
2024-02-16T03:41:33.986Z,19.58
2024-02-16T03:44:02.466Z,18.95
2024-02-16T03:46:31.297Z,18.90
2024-02-16T03:49:01.225Z,19.15
2024-02-16T03:51:30.564Z,19.42
2024-02-16T03:53:58.898Z,20.65
2024-02-16T03:56:27.211Z,19.05
2024-02-16T03:58:55.496Z,18.88
2024-02-16T04:01:24.044Z,18.85
2024-02-16T04:03:53.189Z,19.15
2024-02-16T04:06:23.241Z,18.90
2024-02-16T04:08:51.614Z,18.33
2024-02-16T04:11:19.976Z,19.08
2024-02-16T04:13:48.271Z,20.90
2024-02-16T04:16:16.662Z,20.50
2024-02-16T04:18:45.138Z,18.10
2024-02-16T04:21:13.573Z,19.25
2024-02-16T04:23:43.297Z,19.45
2024-02-16T04:26:11.707Z,19.15
2024-02-16T04:28:39.948Z,19.30
2024-02-16T04:31:08.302Z,17.75
2024-02-16T04:33:36.804Z,19.17
2024-02-16T04:36:09.463Z,20.25
2024-02-16T04:38:37.870Z,19.42
2024-02-16T04:41:09.088Z,20.25
2024-02-16T04:43:37.559Z,20.55
2024-02-16T04:46:06.185Z,18.88
2024-02-16T04:48:35.393Z,17.13
2024-02-16T04:51:03.956Z,18.50
2024-02-16T04:53:32.511Z,17.13
2024-02-16T04:56:00.930Z,17.30
2024-02-16T04:58:30.645Z,17.65
2024-02-16T05:00:59.015Z,16.60
2024-02-16T05:03:27.459Z,17.33
2024-02-16T05:05:55.920Z,17.58
2024-02-16T05:08:24.856Z,17.85
2024-02-16T05:10:53.206Z,16.50
2024-02-16T05:13:21.505Z,16.10
2024-02-16T05:15:51.170Z,16.40
2024-02-16T05:18:19.551Z,16.45
2024-02-16T05:20:48.224Z,17.98
2024-02-16T05:23:16.627Z,15.75
2024-02-16T05:25:45.234Z,15.80
2024-02-16T05:28:14.160Z,15.60
2024-02-16T05:30:42.536Z,14.32
2024-02-16T05:33:12.435Z,16.15
2024-02-16T05:35:42.252Z,16.73
2024-02-16T05:38:21.933Z,15.68
2024-02-16T05:40:57.790Z,15.93
2024-02-16T05:43:26.225Z,15.77
2024-02-16T05:45:54.523Z,16.45
2024-02-16T05:48:25.785Z,15.18
2024-02-16T05:50:54.326Z,14.65
2024-02-16T05:53:22.781Z,16.02
2024-02-16T05:55:51.051Z,14.73
2024-02-16T05:58:19.329Z,14.85
2024-02-16T06:00:48.525Z,16.95
2024-02-16T06:03:17.407Z,16.60
2024-02-16T06:05:47.305Z,16.33
2024-02-16T06:08:16.628Z,15.55
2024-02-16T06:10:45.712Z,15.30
2024-02-16T06:13:14.004Z,17.23
2024-02-16T06:15:42.351Z,15.80
2024-02-16T06:18:10.830Z,15.60
2024-02-16T06:20:39.239Z,16.27
2024-02-16T06:23:10.134Z,17.20
2024-02-16T06:25:38.444Z,17.70
2024-02-16T06:28:06.951Z,17.60
2024-02-16T06:30:35.401Z,18.05
2024-02-16T06:33:04.014Z,16.48
2024-02-16T06:35:32.422Z,17.73
2024-02-16T06:38:00.687Z,16.25
2024-02-16T06:40:31.010Z,18.15
2024-02-16T06:42:59.243Z,15.35
2024-02-16T06:45:27.962Z,17.27
2024-02-16T06:47:57.360Z,17.45
2024-02-16T06:50:25.838Z,17.20
2024-02-16T06:52:56.228Z,15.93
2024-02-16T06:55:24.526Z,15.95
2024-02-16T06:57:54.226Z,15.75
2024-02-16T07:00:23.082Z,18.08
2024-02-16T07:02:51.753Z,15.43
2024-02-16T07:05:20.123Z,16.25
2024-02-16T07:07:48.394Z,15.77
2024-02-16T07:10:17.320Z,17.77
2024-02-16T07:12:46.955Z,17.33
2024-02-16T07:15:16.907Z,17.60
2024-02-16T07:17:45.862Z,18.08
2024-02-16T07:20:16.680Z,16.17
2024-02-16T07:22:47.220Z,15.23
2024-02-16T07:25:15.737Z,15.95
2024-02-16T07:27:44.145Z,16.38
2024-02-16T07:30:18.200Z,15.57
2024-02-16T07:32:53.707Z,16.00
2024-02-16T07:35:25.446Z,15.82
2024-02-16T07:37:55.281Z,16.00
2024-02-16T07:40:23.871Z,15.45
2024-02-16T07:42:52.129Z,14.95
2024-02-16T07:45:20.999Z,15.65
2024-02-16T07:47:49.423Z,15.85
2024-02-16T07:50:23.293Z,15.07
2024-02-16T07:52:52.530Z,14.48
2024-02-16T07:55:21.751Z,13.82
2024-02-16T07:57:50.137Z,15.40
2024-02-16T08:00:18.657Z,14.85
2024-02-16T08:02:47.076Z,13.77
2024-02-16T08:05:16.430Z,13.70
2024-02-16T08:07:46.412Z,13.70
2024-02-16T08:10:15.054Z,14.35
2024-02-16T08:12:43.457Z,13.27
2024-02-16T08:15:12.056Z,12.80
2024-02-16T08:17:42.586Z,12.13
2024-02-16T08:20:12.923Z,12.73
2024-02-16T08:22:41.347Z,12.70
2024-02-16T08:25:11.822Z,12.32
2024-02-16T08:27:40.518Z,12.50
2024-02-16T08:30:11.424Z,13.30
2024-02-16T08:32:40.134Z,12.30
2024-02-16T08:35:09.384Z,12.80
2024-02-16T08:37:37.759Z,13.63
2024-02-16T08:40:07.150Z,12.95
2024-02-16T08:42:36.900Z,31.40
2024-02-16T08:45:05.808Z,13.63
2024-02-16T08:47:34.155Z,16.55
2024-02-16T08:50:02.516Z,20.92
2024-02-16T08:52:30.825Z,14.27
2024-02-16T08:54:59.065Z,15.90
2024-02-16T08:57:27.471Z,22.55
2024-02-16T08:59:57.664Z,13.38
2024-02-16T09:02:25.935Z,13.48
2024-02-16T09:04:54.318Z,18.20
2024-02-16T09:07:23.927Z,22.80
2024-02-16T09:09:52.246Z,16.52
2024-02-16T09:12:20.570Z,18.25
2024-02-16T09:14:48.888Z,29.67
2024-02-16T09:17:20.678Z,14.70
2024-02-16T09:19:49.792Z,25.00
2024-02-16T09:22:18.469Z,14.30
2024-02-16T09:24:48.313Z,12.03
2024-02-16T09:27:17.161Z,17.87
2024-02-16T09:29:45.773Z,16.33
2024-02-16T09:32:14.859Z,22.27
2024-02-16T09:34:47.847Z,13.10
2024-02-16T09:37:17.366Z,14.00
2024-02-16T09:39:46.051Z,17.57
2024-02-16T09:42:15.852Z,17.13
2024-02-16T09:44:45.880Z,13.73
2024-02-16T09:47:15.065Z,15.50
2024-02-16T09:49:45.184Z,24.20
2024-02-16T09:52:14.306Z,32.53
2024-02-16T09:54:42.922Z,24.20
2024-02-16T09:57:11.383Z,30.20
2024-02-16T09:59:39.723Z,65.93
2024-02-16T10:02:08.951Z,27.70
2024-02-16T10:04:37.792Z,18.00
2024-02-16T10:07:11.737Z,22.20
2024-02-16T10:09:43.219Z,19.13
2024-02-16T10:12:12.233Z,13.05
2024-02-16T10:14:42.367Z,28.98
2024-02-16T10:17:11.288Z,26.97
2024-02-16T10:19:42.456Z,34.95
2024-02-16T10:22:14.867Z,23.75
2024-02-16T10:24:44.437Z,20.02
2024-02-16T10:27:20.426Z,14.88
2024-02-16T10:29:51.455Z,14.13
2024-02-16T10:32:21.763Z,14.75
2024-02-16T10:34:51.533Z,16.73
2024-02-16T10:37:21.573Z,15.57
2024-02-16T10:39:51.741Z,13.90
2024-02-16T10:42:22.471Z,19.10
2024-02-16T10:44:51.611Z,14.48
2024-02-16T10:47:19.875Z,25.83
2024-02-16T10:49:48.364Z,15.73
2024-02-16T10:52:17.654Z,22.17
2024-02-16T10:54:48.073Z,14.05
2024-02-16T10:57:18.717Z,23.17
2024-02-16T10:59:49.114Z,30.08
2024-02-16T11:02:17.735Z,14.75
2024-02-16T11:04:50.286Z,13.10
2024-02-16T11:07:20.513Z,17.08
2024-02-16T11:09:50.378Z,14.57
2024-02-16T11:12:18.897Z,19.90
2024-02-16T11:14:49.324Z,14.25
2024-02-16T11:17:22.048Z,22.27
2024-02-16T11:19:51.446Z,14.15
2024-02-16T11:22:22.209Z,22.83
2024-02-16T11:24:57.435Z,24.83
2024-02-16T11:27:27.899Z,31.58
2024-02-16T11:29:57.066Z,26.80
2024-02-16T11:32:26.282Z,18.33
2024-02-16T11:34:54.743Z,24.30
2024-02-16T11:37:23.120Z,25.92
2024-02-16T11:39:59.000Z,21.00
2024-02-16T11:42:27.338Z,12.50
2024-02-16T11:44:57.455Z,12.85
2024-02-16T11:47:29.644Z,16.85
2024-02-16T11:50:06.906Z,14.02
2024-02-16T11:52:36.209Z,25.20
2024-02-16T11:55:09.769Z,13.60
2024-02-16T11:57:38.678Z,14.68
2024-02-16T12:00:11.905Z,13.73
2024-02-16T12:02:40.461Z,21.75
2024-02-16T12:05:10.234Z,27.00
2024-02-16T12:07:41.503Z,18.13
2024-02-16T12:10:13.028Z,18.50
2024-02-16T12:12:43.557Z,13.63
2024-02-16T12:15:14.839Z,11.93
2024-02-16T12:17:43.479Z,12.73
2024-02-16T12:20:15.681Z,11.82
2024-02-16T12:22:44.249Z,10.90
2024-02-16T12:25:14.366Z,12.50
2024-02-16T12:27:42.730Z,11.02
2024-02-16T12:30:12.331Z,10.32
2024-02-16T12:32:40.827Z,12.50
2024-02-16T12:35:10.741Z,11.95
2024-02-16T12:37:39.726Z,11.82
2024-02-16T12:40:09.456Z,14.13
2024-02-16T12:42:39.291Z,13.75
2024-02-16T12:45:08.433Z,12.05
2024-02-16T12:47:36.795Z,12.20
2024-02-16T12:50:05.734Z,22.23
2024-02-16T12:52:37.230Z,11.70
2024-02-16T12:55:11.438Z,10.20
2024-02-16T12:57:41.219Z,11.68
2024-02-16T13:00:10.508Z,11.55
2024-02-16T13:02:38.858Z,10.15
2024-02-16T13:05:07.921Z,11.25
2024-02-16T13:07:36.444Z,10.98
2024-02-16T13:10:05.228Z,10.52
2024-02-16T13:12:33.668Z,11.90
2024-02-16T13:15:14.599Z,14.73
2024-02-16T13:17:51.259Z,11.10
2024-02-16T13:20:20.974Z,11.45
2024-02-16T13:22:49.381Z,10.48
2024-02-16T13:25:18.010Z,9.90
2024-02-16T13:27:46.509Z,10.70
2024-02-16T13:30:17.186Z,12.30
2024-02-16T13:32:45.697Z,11.10
2024-02-16T13:35:16.609Z,12.07
2024-02-16T13:37:48.712Z,11.23
2024-02-16T13:40:18.668Z,12.27
2024-02-16T13:42:47.258Z,11.48
2024-02-16T13:45:17.036Z,10.98
2024-02-16T13:47:45.400Z,11.32
2024-02-16T13:50:13.803Z,11.93
2024-02-16T13:52:42.271Z,9.70
2024-02-16T13:55:10.777Z,10.55
2024-02-16T13:57:40.505Z,10.00
2024-02-16T14:00:10.419Z,10.60
2024-02-16T14:02:40.111Z,10.77
2024-02-16T14:05:08.674Z,9.73
2024-02-16T14:07:43.349Z,10.95
2024-02-16T14:10:19.310Z,9.60
2024-02-16T14:12:48.248Z,10.55
2024-02-16T14:15:17.735Z,11.05
2024-02-16T14:17:47.574Z,10.40
2024-02-16T14:20:16.155Z,10.68
2024-02-16T14:22:44.466Z,11.10
2024-02-16T14:25:14.809Z,10.18
2024-02-16T14:27:44.238Z,9.55
2024-02-16T14:30:14.007Z,10.05
2024-02-16T14:32:42.987Z,10.90
2024-02-16T14:35:12.856Z,11.50
2024-02-16T14:37:41.298Z,10.35
2024-02-16T14:40:12.368Z,11.25
2024-02-16T14:42:41.804Z,11.50
2024-02-16T14:45:20.538Z,11.23
2024-02-16T14:47:50.035Z,11.18
2024-02-16T14:50:20.111Z,11.65
2024-02-16T14:52:48.422Z,10.60
2024-02-16T14:55:16.794Z,11.20
2024-02-16T14:57:46.032Z,11.00
2024-02-16T15:00:15.842Z,12.20
2024-02-16T15:02:44.330Z,11.90
2024-02-16T15:05:14.007Z,11.02
2024-02-16T15:07:43.824Z,10.90
2024-02-16T15:10:12.960Z,10.77
2024-02-16T15:12:44.131Z,11.65
2024-02-16T15:15:14.051Z,11.38
2024-02-16T15:17:42.736Z,10.80
2024-02-16T15:20:11.714Z,11.25
2024-02-16T15:22:48.277Z,12.02
2024-02-16T15:25:22.913Z,10.88
2024-02-16T15:27:51.982Z,12.60
2024-02-16T15:30:20.364Z,13.07
2024-02-16T15:32:51.346Z,12.20
2024-02-16T15:35:21.853Z,13.80
2024-02-16T15:37:50.222Z,11.55
2024-02-16T15:40:18.571Z,15.10
2024-02-16T15:43:01.632Z,13.15
2024-02-16T15:45:30.019Z,14.45
2024-02-16T15:47:58.374Z,13.15
2024-02-16T15:50:27.137Z,13.55
2024-02-16T15:52:55.453Z,21.35
2024-02-16T15:55:23.698Z,21.38
2024-02-16T15:57:59.645Z,28.27
2024-02-16T16:00:28.072Z,35.20
2024-02-16T16:02:57.033Z,28.88
2024-02-16T16:05:26.107Z,24.80
2024-02-16T16:07:54.424Z,17.67
2024-02-16T16:10:24.004Z,13.93
2024-02-16T16:12:52.436Z,14.68
2024-02-16T16:15:22.185Z,14.05
2024-02-16T16:17:50.599Z,13.45
2024-02-16T16:20:19.204Z,12.05
2024-02-16T16:22:47.523Z,14.00
2024-02-16T16:25:15.917Z,13.52
2024-02-16T16:27:48.537Z,12.70
2024-02-16T16:30:20.233Z,12.60
2024-02-16T16:32:50.092Z,12.40
2024-02-16T16:35:18.501Z,13.90
2024-02-16T16:37:52.921Z,12.75
2024-02-16T16:40:21.347Z,13.40
2024-02-16T16:42:49.735Z,13.25
2024-02-16T16:45:18.136Z,13.20
2024-02-16T16:47:46.402Z,14.60
2024-02-16T16:50:20.869Z,16.20
2024-02-16T16:52:49.249Z,14.02
2024-02-16T16:55:17.986Z,13.73
2024-02-16T16:57:47.118Z,13.30
2024-02-16T17:00:16.056Z,13.55
2024-02-16T17:02:44.420Z,13.15
2024-02-16T17:05:12.687Z,12.77
2024-02-16T17:07:42.367Z,14.57
2024-02-16T17:10:14.296Z,13.32
2024-02-16T17:12:45.472Z,13.15
2024-02-16T17:15:19.701Z,14.45
2024-02-16T17:17:52.679Z,14.88
2024-02-16T17:20:25.268Z,14.85
2024-02-16T17:22:55.924Z,15.10
2024-02-16T17:25:25.037Z,16.20
2024-02-16T17:27:53.567Z,17.58
2024-02-16T17:30:22.863Z,15.95
2024-02-16T17:32:51.284Z,19.58
2024-02-16T17:35:20.005Z,14.52
2024-02-16T17:37:48.472Z,15.45
2024-02-16T17:40:18.797Z,15.07
2024-02-16T17:42:47.841Z,14.65
2024-02-16T17:45:16.224Z,15.70
2024-02-16T17:47:44.669Z,14.73
2024-02-16T17:50:13.552Z,14.48
2024-02-16T17:52:41.890Z,14.77
2024-02-16T17:55:10.914Z,15.32
2024-02-16T17:57:40.803Z,14.63
2024-02-16T18:00:11.113Z,15.07
2024-02-16T18:02:42.044Z,15.15
2024-02-16T18:05:14.104Z,14.43
2024-02-16T18:07:42.612Z,14.82
2024-02-16T18:10:12.142Z,13.70
2024-02-16T18:12:42.182Z,14.80
2024-02-16T18:15:11.443Z,13.98
2024-02-16T18:17:40.037Z,15.23
2024-02-16T18:20:12.806Z,13.18
2024-02-16T18:22:42.031Z,13.52
2024-02-16T18:25:10.879Z,13.40
2024-02-16T18:27:39.346Z,14.45
2024-02-16T18:30:11.634Z,13.15
2024-02-16T18:32:40.201Z,13.95
2024-02-16T18:35:09.401Z,13.13
2024-02-16T18:37:37.928Z,12.80
2024-02-16T18:40:09.906Z,13.45
2024-02-16T18:42:38.410Z,15.52
2024-02-16T18:45:10.061Z,13.85
2024-02-16T18:47:38.594Z,12.85
2024-02-16T18:50:08.398Z,13.98
2024-02-16T18:52:36.828Z,13.63
2024-02-16T18:55:05.357Z,17.88
2024-02-16T18:57:33.689Z,17.83
2024-02-16T19:00:03.721Z,16.75
2024-02-16T19:02:33.435Z,14.35
2024-02-16T19:05:01.894Z,15.45
2024-02-16T19:07:30.276Z,14.13
2024-02-16T19:09:58.989Z,15.85
2024-02-16T19:12:27.405Z,12.98
2024-02-16T19:14:55.971Z,13.30
2024-02-16T19:17:25.234Z,14.07
2024-02-16T19:19:56.203Z,17.33
2024-02-16T19:22:25.638Z,13.73
2024-02-16T19:24:54.020Z,15.48
2024-02-16T19:27:22.383Z,15.95
2024-02-16T19:29:51.612Z,12.57
2024-02-16T19:32:20.066Z,15.70
2024-02-16T19:34:48.316Z,13.05
2024-02-16T19:37:18.011Z,15.43
2024-02-16T19:39:46.495Z,12.82
2024-02-16T19:42:15.145Z,13.32
2024-02-16T19:44:43.917Z,15.13
2024-02-16T19:47:12.555Z,14.38
2024-02-16T19:49:41.196Z,13.57
2024-02-16T19:52:09.675Z,11.55
2024-02-16T19:54:39.573Z,11.70
2024-02-16T19:57:07.940Z,12.82
2024-02-16T19:59:36.218Z,13.43
2024-02-16T20:02:04.558Z,14.05
2024-02-16T20:04:33.742Z,12.15
2024-02-16T20:07:02.131Z,13.73
2024-02-16T20:09:30.489Z,13.23
2024-02-16T20:12:01.037Z,13.50
2024-02-16T20:14:29.475Z,12.57
2024-02-16T20:16:57.788Z,12.73
2024-02-16T20:19:26.117Z,12.15
2024-02-16T20:21:54.523Z,12.65
2024-02-16T20:24:22.913Z,12.05
2024-02-16T20:26:51.295Z,12.68
2024-02-16T20:29:21.366Z,12.27
2024-02-16T20:31:49.622Z,14.00
2024-02-16T20:34:17.976Z,13.23
2024-02-16T20:36:50.496Z,12.23
2024-02-16T20:39:19.605Z,12.93
2024-02-16T20:41:48.121Z,12.63
2024-02-16T20:44:17.058Z,12.82
2024-02-16T20:46:46.742Z,13.10
2024-02-16T20:49:15.232Z,14.90
2024-02-16T20:51:44.173Z,14.05
2024-02-16T20:54:12.551Z,16.13
2024-02-16T20:56:40.835Z,14.90
2024-02-16T20:59:10.159Z,16.08
2024-02-16T21:01:38.487Z,15.32
2024-02-16T21:04:08.253Z,16.50
2024-02-16T21:06:39.034Z,17.42
2024-02-16T21:09:08.694Z,15.43
2024-02-16T21:11:37.051Z,16.98
2024-02-16T21:14:05.351Z,15.70
2024-02-16T21:16:33.605Z,16.60
2024-02-16T21:19:02.006Z,16.30
2024-02-16T21:21:32.422Z,17.02
2024-02-16T21:24:00.985Z,18.15
2024-02-16T21:26:29.306Z,16.70
2024-02-16T21:28:57.571Z,16.50
2024-02-16T21:31:28.958Z,16.67
2024-02-16T21:33:57.307Z,17.20
2024-02-16T21:36:27.025Z,18.48
2024-02-16T21:38:56.766Z,17.30
2024-02-16T21:41:25.832Z,17.33
2024-02-16T21:43:54.411Z,17.25
2024-02-16T21:46:29.595Z,18.05
2024-02-16T21:49:03.795Z,18.27
2024-02-16T21:51:33.740Z,17.45
2024-02-16T21:54:04.863Z,17.55
2024-02-16T21:56:34.805Z,17.00
2024-02-16T21:59:03.159Z,17.90
2024-02-16T22:01:32.440Z,18.05
2024-02-16T22:04:03.920Z,18.73
2024-02-16T22:06:33.278Z,16.95
2024-02-16T22:09:06.101Z,19.27
2024-02-16T22:11:34.491Z,18.30
2024-02-16T22:14:02.760Z,17.88
2024-02-16T22:16:31.040Z,17.85
2024-02-16T22:18:59.510Z,17.60
2024-02-16T22:21:33.573Z,18.10
2024-02-16T22:24:11.602Z,18.30
2024-02-16T22:26:41.357Z,17.88
2024-02-16T22:29:09.904Z,16.83
2024-02-16T22:31:42.206Z,17.95
2024-02-16T22:34:12.923Z,19.30
2024-02-16T22:36:41.972Z,17.05
2024-02-16T22:39:11.935Z,17.48
2024-02-16T22:41:40.268Z,17.50
2024-02-16T22:44:08.520Z,18.02
2024-02-16T22:46:37.780Z,18.52
2024-02-16T22:49:06.450Z,18.52
2024-02-16T22:51:40.111Z,17.48
2024-02-16T22:54:15.988Z,17.65
2024-02-16T22:56:45.260Z,17.63
2024-02-16T22:59:13.654Z,17.38
2024-02-16T23:01:42.303Z,18.52
2024-02-16T23:04:10.740Z,16.90
2024-02-16T23:06:39.262Z,17.70
2024-02-16T23:09:09.803Z,18.13
2024-02-16T23:11:42.687Z,19.10
2024-02-16T23:14:11.394Z,18.75
2024-02-16T23:16:42.926Z,18.35
2024-02-16T23:19:11.276Z,20.10
2024-02-16T23:21:40.061Z,18.25
2024-02-16T23:24:09.261Z,17.95
2024-02-16T23:26:37.528Z,18.77
2024-02-16T23:29:07.224Z,18.65
2024-02-16T23:31:35.608Z,18.73
2024-02-16T23:34:04.144Z,19.30
2024-02-16T23:36:32.923Z,18.55
2024-02-16T23:39:01.370Z,18.38
2024-02-16T23:41:29.744Z,19.42
2024-02-16T23:43:58.136Z,19.08
2024-02-16T23:46:27.827Z,19.30
2024-02-16T23:48:56.227Z,19.35
2024-02-16T23:51:24.678Z,20.10
2024-02-16T23:53:53.012Z,18.30
2024-02-16T23:56:21.285Z,20.27
2024-02-16T23:58:49.541Z,19.17
